createdAt,value
2022-07-31T00:00:22.704Z,1.60
2022-07-31T00:02:24.435Z,1.67
2022-07-31T00:04:28.255Z,1.67
2022-07-31T00:06:30.117Z,1.50
2022-07-31T00:08:31.853Z,1.50
2022-07-31T00:10:33.890Z,1.60
2022-07-31T00:12:36.136Z,1.63
2022-07-31T00:14:38.283Z,1.60
2022-07-31T00:16:40.076Z,1.60
2022-07-31T00:18:41.871Z,1.80
2022-07-31T00:20:44.545Z,1.50
2022-07-31T00:22:48.063Z,1.70
2022-07-31T00:24:49.989Z,1.70
2022-07-31T00:26:52.947Z,1.40
2022-07-31T00:28:54.894Z,1.80
2022-07-31T00:30:56.657Z,1.60
2022-07-31T00:32:58.634Z,1.80
2022-07-31T00:35:00.745Z,1.50
2022-07-31T00:37:02.979Z,1.70
2022-07-31T00:39:05.184Z,1.70
2022-07-31T00:41:06.957Z,1.63
2022-07-31T00:43:08.762Z,1.87
2022-07-31T00:45:13.362Z,1.80
2022-07-31T00:47:16.268Z,1.50
2022-07-31T00:49:19.019Z,1.80
2022-07-31T00:51:21.014Z,2.00
2022-07-31T00:53:22.950Z,1.83
2022-07-31T00:55:25.588Z,2.00
2022-07-31T00:57:27.393Z,1.83
2022-07-31T00:59:29.857Z,1.80
2022-07-31T01:01:31.864Z,1.80
2022-07-31T01:03:34.316Z,1.50
2022-07-31T01:05:36.352Z,1.80
2022-07-31T01:07:48.825Z,1.60
2022-07-31T01:09:53.610Z,1.83
2022-07-31T01:12:06.286Z,1.73
2022-07-31T01:14:09.442Z,1.90
2022-07-31T01:16:12.724Z,1.50
2022-07-31T01:18:16.858Z,1.70
2022-07-31T01:20:19.033Z,1.77
2022-07-31T01:22:59.057Z,1.63
2022-07-31T01:25:24.436Z,1.90
2022-07-31T01:27:55.742Z,1.50
2022-07-31T01:30:30.821Z,1.73
2022-07-31T01:32:38.198Z,1.87
2022-07-31T01:34:45.655Z,1.73
2022-07-31T01:37:00.871Z,1.80
2022-07-31T01:39:04.471Z,1.80
2022-07-31T01:41:10.553Z,2.00
2022-07-31T01:43:22.061Z,1.90
2022-07-31T01:45:26.379Z,1.90
2022-07-31T01:47:30.723Z,1.70
2022-07-31T01:49:33.400Z,1.80
2022-07-31T01:51:39.105Z,1.90
2022-07-31T01:53:43.755Z,1.90
2022-07-31T01:56:02.959Z,1.90
2022-07-31T01:58:10.326Z,2.00
2022-07-31T02:00:18.815Z,1.70
2022-07-31T02:02:36.289Z,1.70
2022-07-31T02:04:47.132Z,1.90
2022-07-31T02:06:50.863Z,1.87
2022-07-31T02:08:55.267Z,1.87
2022-07-31T02:10:59.216Z,2.00
2022-07-31T02:13:02.844Z,1.90
2022-07-31T02:15:09.827Z,1.80
2022-07-31T02:17:15.171Z,2.10
2022-07-31T02:19:59.823Z,2.00
2022-07-31T02:22:03.163Z,2.10
2022-07-31T02:24:06.784Z,1.77
2022-07-31T02:26:09.838Z,2.00
2022-07-31T02:28:15.224Z,1.70
2022-07-31T02:30:18.835Z,1.60
2022-07-31T02:32:25.204Z,1.70
2022-07-31T02:34:29.144Z,1.73
2022-07-31T02:36:34.648Z,1.80
2022-07-31T02:38:37.768Z,1.90
2022-07-31T02:40:42.356Z,1.73
2022-07-31T02:42:46.783Z,2.00
2022-07-31T02:44:49.818Z,1.80
2022-07-31T02:46:52.081Z,1.77
2022-07-31T02:48:55.050Z,1.73
2022-07-31T02:50:59.292Z,2.00
2022-07-31T02:53:01.938Z,2.10
2022-07-31T02:55:04.503Z,2.17
2022-07-31T02:57:06.645Z,1.77
2022-07-31T02:59:09.830Z,1.80
2022-07-31T03:01:34.939Z,2.10
2022-07-31T03:03:37.133Z,1.80
2022-07-31T03:05:39.135Z,2.00
2022-07-31T03:07:41.094Z,1.83
2022-07-31T03:09:43.148Z,1.80
2022-07-31T03:12:04.666Z,1.80
2022-07-31T03:14:10.383Z,1.80
2022-07-31T03:16:13.054Z,1.80
2022-07-31T03:18:16.403Z,1.80
2022-07-31T03:20:21.459Z,1.77
2022-07-31T03:22:24.052Z,1.97
2022-07-31T03:24:27.056Z,1.97
2022-07-31T03:26:29.182Z,1.80
2022-07-31T03:28:31.240Z,1.90
2022-07-31T03:30:33.068Z,2.10
2022-07-31T03:32:36.532Z,2.10
2022-07-31T03:34:38.364Z,1.90
2022-07-31T03:36:40.730Z,1.87
2022-07-31T03:38:45.557Z,1.90
2022-07-31T03:40:59.383Z,1.97
2022-07-31T03:43:03.440Z,1.97
2022-07-31T03:45:07.330Z,1.80
2022-07-31T03:47:09.274Z,2.00
2022-07-31T03:49:12.779Z,1.80
2022-07-31T03:51:16.039Z,2.10
2022-07-31T03:53:18.914Z,2.03
2022-07-31T03:55:21.465Z,2.10
2022-07-31T03:57:28.720Z,1.90
2022-07-31T03:59:37.216Z,2.00
2022-07-31T04:01:57.977Z,2.30
2022-07-31T04:04:18.069Z,2.10
2022-07-31T04:06:40.483Z,2.00
2022-07-31T04:08:42.912Z,2.20
2022-07-31T04:10:44.709Z,1.83
2022-07-31T04:12:49.424Z,1.97
2022-07-31T04:14:52.577Z,2.00
2022-07-31T04:16:54.564Z,1.80
2022-07-31T04:18:57.534Z,1.93
2022-07-31T04:20:59.954Z,2.07
2022-07-31T04:23:03.890Z,2.10
2022-07-31T04:25:27.633Z,1.93
2022-07-31T04:27:58.039Z,2.10
2022-07-31T04:30:00.784Z,2.20
2022-07-31T04:32:06.243Z,1.73
2022-07-31T04:34:17.515Z,2.10
2022-07-31T04:36:30.682Z,2.00
2022-07-31T04:38:34.702Z,1.87
2022-07-31T04:40:36.500Z,2.00
2022-07-31T04:42:38.275Z,2.20
2022-07-31T04:44:40.109Z,1.80
2022-07-31T04:46:43.850Z,1.87
2022-07-31T04:48:46.103Z,2.00
2022-07-31T04:50:51.146Z,2.10
2022-07-31T04:52:53.031Z,1.80
2022-07-31T04:54:55.906Z,2.00
2022-07-31T04:56:57.889Z,1.80
2022-07-31T04:59:02.197Z,2.07
2022-07-31T05:01:04.259Z,1.80
2022-07-31T05:03:06.167Z,2.10
2022-07-31T05:05:08.504Z,1.90
2022-07-31T05:07:13.618Z,2.10
2022-07-31T05:09:19.145Z,1.93
2022-07-31T05:11:24.975Z,2.23
2022-07-31T05:13:26.841Z,2.20
2022-07-31T05:15:28.575Z,2.20
2022-07-31T05:17:31.644Z,2.20
2022-07-31T05:19:59.816Z,2.00
2022-07-31T05:22:24.195Z,2.17
2022-07-31T05:24:44.137Z,2.53
2022-07-31T05:26:46.847Z,2.30
2022-07-31T05:28:49.633Z,2.10
2022-07-31T05:30:51.879Z,2.37
2022-07-31T05:32:53.719Z,2.60
2022-07-31T05:34:55.557Z,2.40
2022-07-31T05:37:01.674Z,2.50
2022-07-31T05:39:06.100Z,2.07
2022-07-31T05:41:08.745Z,2.10
2022-07-31T05:43:30.844Z,1.90
2022-07-31T05:45:48.883Z,2.27
2022-07-31T05:47:50.668Z,2.10
2022-07-31T05:49:52.442Z,2.47
2022-07-31T05:51:56.916Z,2.30
2022-07-31T05:53:58.882Z,2.00
2022-07-31T05:56:19.664Z,2.70
2022-07-31T05:58:24.754Z,2.27
2022-07-31T06:00:28.271Z,2.43
2022-07-31T06:02:31.518Z,2.30
2022-07-31T06:04:42.527Z,2.37
2022-07-31T06:06:44.297Z,2.60
2022-07-31T06:08:46.782Z,2.23
2022-07-31T06:10:48.990Z,2.60
2022-07-31T06:12:51.108Z,2.43
2022-07-31T06:14:53.104Z,2.53
2022-07-31T06:17:07.681Z,2.53
2022-07-31T06:19:11.427Z,2.50
2022-07-31T06:23:22.543Z,2.90
2022-07-31T06:25:31.952Z,2.47
2022-07-31T06:27:41.988Z,2.20
2022-07-31T06:29:43.966Z,2.40
2022-07-31T06:31:47.626Z,2.40
2022-07-31T06:33:50.241Z,2.07
2022-07-31T06:35:54.985Z,1.97
2022-07-31T06:38:25.867Z,2.40
2022-07-31T06:40:46.682Z,2.20
2022-07-31T06:43:03.755Z,2.30
2022-07-31T06:45:48.906Z,2.07
2022-07-31T06:48:13.661Z,1.90
2022-07-31T06:50:21.147Z,2.27
2022-07-31T06:52:29.840Z,2.17
2022-07-31T06:54:31.658Z,2.23
2022-07-31T06:56:34.724Z,2.27
2022-07-31T06:58:36.515Z,2.10
2022-07-31T07:00:38.511Z,2.23
2022-07-31T07:02:40.305Z,2.30
2022-07-31T07:05:05.241Z,2.27
2022-07-31T07:07:05.246Z,2.00
2022-07-31T07:09:07.301Z,2.10
2022-07-31T07:11:12.431Z,2.00
2022-07-31T07:13:15.145Z,2.20
2022-07-31T07:15:36.352Z,2.30
2022-07-31T07:17:39.428Z,1.90
2022-07-31T07:19:54.619Z,2.10
2022-07-31T07:21:57.272Z,2.37
2022-07-31T07:23:59.141Z,2.20
2022-07-31T07:26:09.910Z,1.90
2022-07-31T07:28:15.202Z,2.47
2022-07-31T07:30:34.568Z,2.13
2022-07-31T07:32:37.672Z,2.20
2022-07-31T07:34:39.596Z,1.93
2022-07-31T07:36:42.225Z,2.03
2022-07-31T07:38:49.947Z,2.40
2022-07-31T07:40:54.066Z,2.23
2022-07-31T07:42:59.965Z,2.20
2022-07-31T07:45:07.856Z,2.13
2022-07-31T07:47:09.936Z,2.03
2022-07-31T07:49:11.896Z,2.00
2022-07-31T07:51:21.175Z,2.20
2022-07-31T07:53:29.458Z,2.20
2022-07-31T07:55:49.783Z,1.90
2022-07-31T07:58:26.609Z,2.10
2022-07-31T08:00:48.559Z,1.90
2022-07-31T08:03:46.787Z,1.80
2022-07-31T08:05:16.103Z,2.10
2022-07-31T08:07:41.872Z,2.23
2022-07-31T08:10:18.697Z,2.20
2022-07-31T08:12:28.976Z,1.97
2022-07-31T08:14:51.284Z,1.87
2022-07-31T08:17:12.993Z,1.70
2022-07-31T08:19:15.424Z,1.60
2022-07-31T08:21:17.654Z,1.80
2022-07-31T08:23:19.445Z,1.90
2022-07-31T08:25:21.385Z,1.80
2022-07-31T08:27:24.067Z,1.63
2022-07-31T08:29:43.424Z,1.70
2022-07-31T08:31:51.950Z,1.60
2022-07-31T08:34:12.927Z,1.60
2022-07-31T08:36:33.463Z,1.80
2022-07-31T08:38:39.188Z,1.90
2022-07-31T08:41:13.663Z,1.83
2022-07-31T08:45:40.451Z,1.73
2022-07-31T08:47:57.037Z,1.60
2022-07-31T08:50:05.527Z,1.93
2022-07-31T08:52:21.466Z,1.70
2022-07-31T08:54:44.069Z,1.70
2022-07-31T08:56:47.085Z,1.77
2022-07-31T08:58:49.611Z,2.20
2022-07-31T09:00:51.780Z,1.83
2022-07-31T09:02:55.031Z,2.10
2022-07-31T09:05:25.305Z,1.87
2022-07-31T09:07:29.154Z,1.50
2022-07-31T09:09:41.060Z,1.90
2022-07-31T09:11:56.650Z,1.80
2022-07-31T09:14:30.068Z,1.90
2022-07-31T09:16:44.101Z,1.90
2022-07-31T09:18:58.596Z,1.90
2022-07-31T09:21:02.686Z,2.23
2022-07-31T09:23:06.826Z,1.83
2022-07-31T09:25:15.951Z,1.80
2022-07-31T09:27:18.590Z,1.70
2022-07-31T09:29:32.595Z,1.63
2022-07-31T09:31:35.696Z,1.80
2022-07-31T09:33:59.579Z,1.70
2022-07-31T09:36:24.951Z,1.80
2022-07-31T09:38:39.445Z,1.77
2022-07-31T09:41:56.734Z,1.60
2022-07-31T09:43:56.007Z,1.55
2022-07-31T09:46:01.745Z,1.33
2022-07-31T09:48:17.070Z,1.53
2022-07-31T09:50:28.456Z,1.60
2022-07-31T09:52:32.047Z,1.90
2022-07-31T09:54:34.071Z,1.55
2022-07-31T09:56:44.991Z,1.60
2022-07-31T09:58:47.190Z,1.42
2022-07-31T10:00:53.404Z,1.55
2022-07-31T10:02:56.764Z,1.60
2022-07-31T10:05:00.537Z,1.50
2022-07-31T10:07:02.860Z,1.40
2022-07-31T10:09:32.739Z,1.10
2022-07-31T10:11:58.600Z,1.38
2022-07-31T10:14:03.023Z,1.50
2022-07-31T10:16:06.635Z,1.40
2022-07-31T10:18:44.100Z,1.27
2022-07-31T10:21:06.432Z,1.30
2022-07-31T10:23:29.089Z,1.42
2022-07-31T10:25:31.709Z,1.40
2022-07-31T10:27:39.591Z,1.65
2022-07-31T10:29:45.429Z,1.30
2022-07-31T10:31:47.695Z,1.30
2022-07-31T10:33:50.088Z,1.33
2022-07-31T10:36:32.804Z,1.50
2022-07-31T10:38:56.024Z,1.58
2022-07-31T10:41:34.576Z,1.50
2022-07-31T10:43:51.400Z,1.40
2022-07-31T10:46:04.065Z,1.70
2022-07-31T10:48:18.425Z,1.50
2022-07-31T10:50:42.193Z,1.63
2022-07-31T10:53:12.786Z,1.40
2022-07-31T10:56:13.705Z,1.38
2022-07-31T10:58:35.124Z,1.35
2022-07-31T11:01:08.070Z,1.38
2022-07-31T11:03:44.208Z,1.38
2022-07-31T11:06:16.241Z,1.55
2022-07-31T11:08:48.209Z,1.55
2022-07-31T11:11:09.082Z,1.50
2022-07-31T11:13:33.653Z,1.40
2022-07-31T11:15:52.433Z,1.60
2022-07-31T11:18:35.805Z,1.40
2022-07-31T11:20:43.111Z,1.52
2022-07-31T11:23:00.508Z,1.50
2022-07-31T11:25:02.284Z,1.30
2022-07-31T11:27:04.387Z,1.50
2022-07-31T11:29:59.630Z,1.50
2022-07-31T11:31:30.077Z,1.50
2022-07-31T11:33:43.055Z,1.55
2022-07-31T11:35:45.220Z,1.20
2022-07-31T11:37:57.796Z,1.25
2022-07-31T11:39:59.984Z,1.60
2022-07-31T11:42:07.580Z,1.30
2022-07-31T11:44:09.743Z,1.50
2022-07-31T11:46:11.941Z,1.40
2022-07-31T11:48:18.996Z,1.40
2022-07-31T11:50:21.353Z,1.17
2022-07-31T11:52:31.193Z,1.40
2022-07-31T11:54:39.633Z,1.35
2022-07-31T11:56:41.449Z,1.30
2022-07-31T11:58:51.637Z,1.30
2022-07-31T12:01:00.513Z,1.25
2022-07-31T12:05:48.503Z,1.30
2022-07-31T12:07:50.359Z,1.23
2022-07-31T12:10:02.027Z,1.50
2022-07-31T12:12:06.272Z,1.42
2022-07-31T12:14:08.157Z,1.20
2022-07-31T12:16:11.124Z,1.50
2022-07-31T12:18:13.102Z,1.30
2022-07-31T12:20:29.788Z,1.30
2022-07-31T12:22:37.626Z,1.40
2022-07-31T12:24:39.657Z,1.42
2022-07-31T12:26:48.790Z,1.27
2022-07-31T12:29:08.852Z,1.20
2022-07-31T12:31:10.672Z,1.30
2022-07-31T12:33:13.464Z,1.13
2022-07-31T12:35:15.447Z,1.38
2022-07-31T12:37:19.355Z,1.40
2022-07-31T12:39:21.316Z,1.17
2022-07-31T12:41:23.292Z,1.13
2022-07-31T12:43:25.070Z,1.52
2022-07-31T12:45:37.565Z,1.20
2022-07-31T12:47:40.051Z,1.30
2022-07-31T12:49:41.933Z,1.40
2022-07-31T12:51:45.206Z,1.55
2022-07-31T12:53:49.665Z,1.30
2022-07-31T12:55:51.665Z,1.35
2022-07-31T12:57:53.603Z,1.30
2022-07-31T12:59:55.618Z,1.35
2022-07-31T13:01:57.425Z,1.33
2022-07-31T13:04:00.024Z,1.40
2022-07-31T13:06:05.248Z,1.30
2022-07-31T13:08:08.735Z,1.50
2022-07-31T13:10:19.910Z,1.35
2022-07-31T13:12:26.493Z,1.50
2022-07-31T13:14:28.445Z,1.45
2022-07-31T13:16:30.425Z,1.30
2022-07-31T13:18:32.794Z,1.50
2022-07-31T13:20:34.850Z,1.40
2022-07-31T13:22:36.638Z,1.30
2022-07-31T13:24:38.399Z,1.20
2022-07-31T13:26:42.056Z,1.40
2022-07-31T13:28:44.009Z,1.30
2022-07-31T13:30:46.036Z,1.40
2022-07-31T13:32:47.770Z,1.60
2022-07-31T13:34:49.505Z,1.40
2022-07-31T13:37:11.519Z,1.20
2022-07-31T13:39:13.606Z,1.45
2022-07-31T13:41:23.795Z,1.40
2022-07-31T13:43:25.764Z,1.38
2022-07-31T13:45:27.515Z,1.33
2022-07-31T13:47:50.705Z,1.40
2022-07-31T13:49:51.190Z,1.50
2022-07-31T13:51:52.965Z,1.40
2022-07-31T13:53:54.818Z,1.55
2022-07-31T13:55:58.703Z,1.52
2022-07-31T13:58:02.173Z,1.40
2022-07-31T14:00:04.689Z,1.30
2022-07-31T14:02:07.128Z,1.30
2022-07-31T14:04:12.789Z,1.75
2022-07-31T14:06:21.066Z,1.60
2022-07-31T14:08:29.889Z,1.60
2022-07-31T14:10:35.178Z,1.60
2022-07-31T14:12:37.447Z,1.40
2022-07-31T14:14:39.266Z,1.70
2022-07-31T14:16:41.896Z,1.73
2022-07-31T14:18:43.792Z,1.50
2022-07-31T14:20:46.346Z,1.50
2022-07-31T14:22:48.477Z,1.80
2022-07-31T14:24:51.490Z,2.63
2022-07-31T14:26:53.622Z,1.80
2022-07-31T14:28:55.494Z,1.85
2022-07-31T14:30:57.370Z,1.65
2022-07-31T14:33:00.273Z,2.08
2022-07-31T14:35:07.758Z,1.80
2022-07-31T14:37:10.328Z,1.40
2022-07-31T14:39:12.284Z,2.10
2022-07-31T14:41:14.219Z,1.80
2022-07-31T14:43:16.099Z,1.70
2022-07-31T14:45:17.923Z,1.58
2022-07-31T14:47:20.162Z,1.88
2022-07-31T14:49:24.646Z,1.80
2022-07-31T14:51:26.478Z,1.80
2022-07-31T14:53:28.380Z,2.08
2022-07-31T14:55:30.349Z,1.75
2022-07-31T14:57:32.167Z,2.03
2022-07-31T14:59:34.251Z,1.77
2022-07-31T15:01:36.079Z,1.92
2022-07-31T15:03:38.516Z,1.77
2022-07-31T15:06:39.223Z,1.80
2022-07-31T15:08:04.048Z,1.88
2022-07-31T15:10:06.797Z,1.70
2022-07-31T15:12:09.119Z,2.10
2022-07-31T15:14:11.382Z,1.70
2022-07-31T15:16:13.756Z,2.10
2022-07-31T15:18:15.530Z,2.00
2022-07-31T15:20:17.260Z,1.92
2022-07-31T15:22:19.453Z,1.90
2022-07-31T15:24:22.186Z,1.95
2022-07-31T15:26:23.956Z,2.28
2022-07-31T15:28:27.958Z,2.20
2022-07-31T15:30:29.845Z,2.20
2022-07-31T15:32:31.617Z,2.10
2022-07-31T15:34:35.499Z,1.92
2022-07-31T15:36:37.596Z,1.80
2022-07-31T15:38:41.577Z,2.00
2022-07-31T15:40:43.527Z,2.20
2022-07-31T15:42:47.280Z,1.90
2022-07-31T15:44:49.125Z,2.10
2022-07-31T15:46:51.209Z,1.73
2022-07-31T15:48:53.004Z,1.80
2022-07-31T15:50:54.780Z,2.47
2022-07-31T15:52:56.551Z,1.92
2022-07-31T15:54:58.446Z,1.90
2022-07-31T15:57:01.426Z,1.65
2022-07-31T15:59:09.271Z,1.90
2022-07-31T16:01:13.653Z,1.90
2022-07-31T16:03:18.130Z,1.77
2022-07-31T16:05:23.982Z,1.80
2022-07-31T16:08:28.475Z,1.90
2022-07-31T16:10:00.992Z,1.90
2022-07-31T16:12:16.828Z,1.67
2022-07-31T16:14:18.914Z,1.50
2022-07-31T16:16:23.435Z,1.60
2022-07-31T16:18:25.172Z,1.60
2022-07-31T16:20:27.412Z,1.60
2022-07-31T16:22:29.301Z,1.70
2022-07-31T16:24:31.042Z,1.65
2022-07-31T16:26:34.911Z,1.90
2022-07-31T16:28:36.712Z,1.60
2022-07-31T16:30:38.478Z,1.60
2022-07-31T16:32:40.499Z,1.40
2022-07-31T16:34:42.203Z,1.40
2022-07-31T16:36:48.112Z,1.80
2022-07-31T16:39:18.533Z,2.00
2022-07-31T16:41:14.172Z,2.08
2022-07-31T16:43:49.201Z,1.70
2022-07-31T16:45:37.831Z,1.70
2022-07-31T16:47:50.858Z,1.80
2022-07-31T16:50:00.383Z,1.60
2022-07-31T16:52:04.099Z,1.67
2022-07-31T16:54:12.782Z,1.73
2022-07-31T16:56:20.437Z,1.73
2022-07-31T16:58:24.547Z,1.80
2022-07-31T17:00:26.702Z,1.90
2022-07-31T17:02:28.461Z,1.73
2022-07-31T17:04:30.456Z,2.00
2022-07-31T17:06:34.426Z,1.67
2022-07-31T17:08:39.147Z,1.75
2022-07-31T17:10:40.930Z,1.90
2022-07-31T17:12:44.930Z,1.60
2022-07-31T17:14:49.238Z,1.67
2022-07-31T17:16:52.390Z,1.90
2022-07-31T17:18:54.363Z,1.63
2022-07-31T17:20:56.922Z,1.88
2022-07-31T17:22:59.311Z,1.70
2022-07-31T17:25:08.710Z,1.50
2022-07-31T17:27:13.011Z,2.00
2022-07-31T17:29:15.302Z,1.88
2022-07-31T17:31:21.209Z,2.00
2022-07-31T17:33:58.579Z,2.10
2022-07-31T17:35:45.771Z,1.70
2022-07-31T17:37:48.071Z,1.80
2022-07-31T17:39:49.935Z,1.75
2022-07-31T17:41:51.626Z,2.10
2022-07-31T17:43:56.413Z,2.00
2022-07-31T17:46:05.825Z,1.65
2022-07-31T17:48:10.544Z,1.70
2022-07-31T17:50:12.449Z,2.00
2022-07-31T17:52:15.255Z,1.90
2022-07-31T17:54:17.307Z,1.70
2022-07-31T17:56:21.835Z,1.67
2022-07-31T17:58:26.978Z,1.85
2022-07-31T18:00:32.348Z,1.52
2022-07-31T18:02:34.559Z,2.00
2022-07-31T18:04:39.994Z,2.00
2022-07-31T18:06:41.801Z,1.70
2022-07-31T18:08:46.159Z,1.80
2022-07-31T18:10:54.228Z,2.00
2022-07-31T18:13:02.512Z,1.70
2022-07-31T18:15:07.860Z,1.83
2022-07-31T18:17:12.326Z,1.83
2022-07-31T18:19:14.479Z,1.90
2022-07-31T18:21:18.511Z,2.00
2022-07-31T18:23:23.076Z,1.83
2022-07-31T18:25:25.661Z,1.90
2022-07-31T18:27:27.692Z,1.73
2022-07-31T18:29:32.541Z,2.00
2022-07-31T18:31:35.906Z,1.75
2022-07-31T18:33:42.423Z,2.00
2022-07-31T18:35:44.933Z,1.67
2022-07-31T18:37:47.145Z,2.00
2022-07-31T18:39:49.441Z,1.75
2022-07-31T18:41:51.884Z,1.92
2022-07-31T18:43:57.486Z,1.90
2022-07-31T18:46:00.541Z,1.92
2022-07-31T18:48:07.275Z,1.85
2022-07-31T18:50:59.640Z,1.70
2022-07-31T18:52:33.994Z,2.10
2022-07-31T18:54:35.800Z,1.80
2022-07-31T18:56:37.544Z,1.70
2022-07-31T18:58:41.444Z,1.80
2022-07-31T19:00:43.190Z,1.87
2022-07-31T19:02:44.920Z,1.80
2022-07-31T19:04:48.835Z,1.90
2022-07-31T19:06:54.230Z,1.87
2022-07-31T19:08:58.647Z,1.65
2022-07-31T19:11:03.736Z,1.77
2022-07-31T19:13:07.975Z,1.80
2022-07-31T19:15:20.501Z,1.60
2022-07-31T19:17:22.260Z,1.87
2022-07-31T19:19:24.152Z,1.90
2022-07-31T19:21:41.337Z,1.80
2022-07-31T19:23:43.951Z,1.87
2022-07-31T19:26:01.975Z,2.00
2022-07-31T19:28:06.267Z,1.77
2022-07-31T19:30:14.669Z,1.90
2022-07-31T19:32:16.765Z,2.07
2022-07-31T19:34:18.795Z,2.00
2022-07-31T19:36:20.742Z,2.00
2022-07-31T19:38:22.477Z,2.00
2022-07-31T19:40:27.668Z,1.73
2022-07-31T19:42:29.721Z,2.03
2022-07-31T19:44:31.595Z,1.80
2022-07-31T19:46:33.474Z,1.80
2022-07-31T19:48:40.575Z,1.80
2022-07-31T19:50:42.495Z,1.60
2022-07-31T19:52:44.365Z,1.80
2022-07-31T19:54:48.201Z,1.80
2022-07-31T19:56:50.052Z,1.37
2022-07-31T19:58:55.520Z,1.63
2022-07-31T20:00:57.251Z,1.53
2022-07-31T20:02:59.155Z,1.50
2022-07-31T20:05:01.438Z,1.60
2022-07-31T20:07:03.307Z,1.53
2022-07-31T20:09:06.558Z,1.20
2022-07-31T20:11:08.447Z,1.47
2022-07-31T20:13:10.344Z,1.27
2022-07-31T20:15:14.544Z,1.50
2022-07-31T20:17:16.648Z,1.27
2022-07-31T20:19:18.413Z,1.30
2022-07-31T20:21:20.440Z,1.50
2022-07-31T20:23:22.234Z,1.30
2022-07-31T20:25:26.983Z,1.30
2022-07-31T20:27:28.728Z,1.50
2022-07-31T20:29:32.509Z,1.13
2022-07-31T20:31:35.407Z,1.60
2022-07-31T20:33:37.434Z,1.23
2022-07-31T20:35:48.838Z,1.30
2022-07-31T20:37:55.508Z,1.23
2022-07-31T20:40:00.564Z,1.40
2022-07-31T20:42:07.395Z,1.23
2022-07-31T20:44:09.962Z,1.10
2022-07-31T20:46:11.912Z,1.33
2022-07-31T20:48:14.296Z,1.10
2022-07-31T20:50:16.062Z,1.20
2022-07-31T20:52:21.507Z,1.40
2022-07-31T20:54:34.034Z,1.20
2022-07-31T20:56:39.054Z,1.50
2022-07-31T20:58:41.370Z,1.13
2022-07-31T21:00:43.750Z,1.03
2022-07-31T21:02:46.534Z,1.00
2022-07-31T21:04:51.783Z,1.00
2022-07-31T21:06:53.576Z,1.07
2022-07-31T21:08:55.376Z,1.13
2022-07-31T21:10:57.295Z,1.30
2022-07-31T21:13:05.704Z,1.20
2022-07-31T21:15:40.951Z,1.10
2022-07-31T21:17:30.170Z,1.10
2022-07-31T21:19:31.882Z,1.27
2022-07-31T21:21:35.863Z,1.10
2022-07-31T21:23:37.553Z,1.17
2022-07-31T21:25:39.648Z,1.10
2022-07-31T21:27:43.139Z,1.20
2022-07-31T21:29:45.110Z,1.20
2022-07-31T21:31:49.165Z,1.30
2022-07-31T21:33:52.296Z,1.13
2022-07-31T21:35:57.403Z,1.20
2022-07-31T21:37:59.528Z,1.13
2022-07-31T21:40:02.659Z,1.10
2022-07-31T21:42:07.597Z,1.00
2022-07-31T21:44:11.178Z,1.20
2022-07-31T21:46:20.818Z,1.20
2022-07-31T21:48:25.923Z,1.37
2022-07-31T21:50:29.390Z,1.10
2022-07-31T21:52:39.626Z,1.13
2022-07-31T21:54:41.408Z,1.23
2022-07-31T21:56:43.124Z,1.30
2022-07-31T21:58:45.312Z,1.10
2022-07-31T22:00:47.146Z,1.20
2022-07-31T22:02:48.919Z,1.20
2022-07-31T22:05:09.257Z,1.20
2022-07-31T22:07:29.567Z,1.27
2022-07-31T22:09:33.095Z,1.10
2022-07-31T22:11:35.738Z,1.10
2022-07-31T22:13:37.686Z,1.13
2022-07-31T22:15:59.187Z,1.13
2022-07-31T22:18:02.176Z,1.30
2022-07-31T22:20:06.492Z,1.50
2022-07-31T22:22:10.903Z,1.27
2022-07-31T22:24:14.935Z,1.10
2022-07-31T22:26:16.987Z,1.20
2022-07-31T22:28:21.238Z,1.30
2022-07-31T22:30:28.589Z,1.10
2022-07-31T22:32:33.468Z,1.03
2022-07-31T22:34:37.218Z,1.20
2022-07-31T22:36:42.438Z,1.07
2022-07-31T22:38:45.392Z,1.17
2022-07-31T22:40:47.193Z,1.13
2022-07-31T22:42:56.122Z,1.10
2022-07-31T22:44:58.358Z,1.20
2022-07-31T22:47:03.006Z,1.23
2022-07-31T22:49:07.206Z,1.40
2022-07-31T22:51:12.757Z,1.20
2022-07-31T22:53:19.440Z,1.40
2022-07-31T22:55:21.286Z,1.47
2022-07-31T22:57:23.150Z,1.20
2022-07-31T22:59:25.095Z,1.20
2022-07-31T23:01:27.089Z,1.60
2022-07-31T23:03:28.992Z,1.20
2022-07-31T23:06:27.985Z,1.07
2022-07-31T23:07:52.733Z,1.30
2022-07-31T23:09:55.924Z,1.20
2022-07-31T23:12:01.645Z,1.10
2022-07-31T23:14:05.658Z,1.13
2022-07-31T23:16:07.544Z,1.00
2022-07-31T23:18:11.852Z,1.40
2022-07-31T23:20:16.300Z,1.20
2022-07-31T23:22:18.100Z,1.20
2022-07-31T23:24:19.959Z,1.40
2022-07-31T23:26:26.965Z,1.10
2022-07-31T23:28:31.464Z,1.30
2022-07-31T23:30:33.144Z,1.17
2022-07-31T23:32:34.929Z,1.00
2022-07-31T23:34:36.765Z,1.27
2022-07-31T23:36:42.954Z,1.33
2022-07-31T23:38:45.669Z,1.30
2022-07-31T23:40:47.532Z,1.10
2022-07-31T23:42:49.293Z,1.10
2022-07-31T23:44:51.144Z,1.20
2022-07-31T23:46:55.567Z,1.30
2022-07-31T23:48:58.598Z,1.50
2022-07-31T23:51:00.720Z,1.30
2022-07-31T23:53:04.744Z,1.30
2022-07-31T23:55:06.934Z,1.10
2022-07-31T23:57:08.827Z,1.23
2022-07-31T23:59:10.758Z,0.93
